sensor_id;sensor_type;location;lat;lon;timestamp;pressure;altitude;pressure_sealevel;temperature;humidity
46015;BME280;36844;51.898;-0.874;2023-06-14T00:01:10;100627.50;;;22.84;
46015;BME280;36844;51.898;-0.874;2023-06-14T00:03:38;100621.47;;;22.76;
46015;BME280;36844;51.898;-0.874;2023-06-14T00:06:04;100619.94;;;22.75;
46015;BME280;36844;51.898;-0.874;2023-06-14T00:08:29;100613.06;;;22.71;
46015;BME280;36844;51.898;-0.874;2023-06-14T00:10:55;100632.22;;;22.80;
46015;BME280;36844;51.898;-0.874;2023-06-14T00:13:20;100631.19;;;22.74;
46015;BME280;36844;51.898;-0.874;2023-06-14T00:15:46;100643.94;;;22.77;
46015;BME280;36844;51.898;-0.874;2023-06-14T00:18:12;100619.00;;;22.66;
46015;BME280;36844;51.898;-0.874;2023-06-14T00:20:38;100628.25;;;22.68;
46015;BME280;36844;51.898;-0.874;2023-06-14T00:23:04;100634.03;;;22.70;
46015;BME280;36844;51.898;-0.874;2023-06-14T00:25:30;100626.75;;;22.67;
46015;BME280;36844;51.898;-0.874;2023-06-14T00:27:56;100643.22;;;22.76;
46015;BME280;36844;51.898;-0.874;2023-06-14T00:30:21;100618.34;;;22.62;
46015;BME280;36844;51.898;-0.874;2023-06-14T00:32:47;100642.53;;;22.72;
46015;BME280;36844;51.898;-0.874;2023-06-14T00:35:13;100641.75;;;22.72;
46015;BME280;36844;51.898;-0.874;2023-06-14T00:37:39;100650.22;;;22.74;
46015;BME280;36844;51.898;-0.874;2023-06-14T00:40:04;100628.53;;;22.58;
46015;BME280;36844;51.898;-0.874;2023-06-14T00:42:31;100639.53;;;22.67;
46015;BME280;36844;51.898;-0.874;2023-06-14T00:44:56;100642.63;;;22.69;
46015;BME280;36844;51.898;-0.874;2023-06-14T00:47:22;100643.69;;;22.71;
46015;BME280;36844;51.898;-0.874;2023-06-14T00:49:48;100640.41;;;22.64;
46015;BME280;36844;51.898;-0.874;2023-06-14T00:52:15;100645.31;;;22.69;
46015;BME280;36844;51.898;-0.874;2023-06-14T00:54:41;100637.00;;;22.60;
46015;BME280;36844;51.898;-0.874;2023-06-14T00:57:07;100627.00;;;22.57;
46015;BME280;36844;51.898;-0.874;2023-06-14T00:59:35;100630.41;;;22.61;
46015;BME280;36844;51.898;-0.874;2023-06-14T01:02:03;100640.81;;;22.62;
46015;BME280;36844;51.898;-0.874;2023-06-14T01:04:29;100626.22;;;22.56;
46015;BME280;36844;51.898;-0.874;2023-06-14T01:09:33;100635.47;;;22.59;
46015;BME280;36844;51.898;-0.874;2023-06-14T01:12:15;100647.00;;;22.63;
46015;BME280;36844;51.898;-0.874;2023-06-14T01:14:42;100625.56;;;22.52;
46015;BME280;36844;51.898;-0.874;2023-06-14T01:17:08;100628.16;;;22.56;
46015;BME280;36844;51.898;-0.874;2023-06-14T01:19:41;100636.75;;;22.54;
46015;BME280;36844;51.898;-0.874;2023-06-14T01:22:08;100619.53;;;22.45;
46015;BME280;36844;51.898;-0.874;2023-06-14T01:24:33;100640.31;;;22.51;
46015;BME280;36844;51.898;-0.874;2023-06-14T01:27:00;100628.00;;;22.47;
46015;BME280;36844;51.898;-0.874;2023-06-14T01:29:26;100640.66;;;22.53;
46015;BME280;36844;51.898;-0.874;2023-06-14T01:31:53;100637.94;;;22.53;
46015;BME280;36844;51.898;-0.874;2023-06-14T01:34:19;100647.16;;;22.56;
46015;BME280;36844;51.898;-0.874;2023-06-14T01:36:45;100629.22;;;22.46;
46015;BME280;36844;51.898;-0.874;2023-06-14T01:39:14;100632.31;;;22.44;
46015;BME280;36844;51.898;-0.874;2023-06-14T01:41:40;100643.44;;;22.50;
46015;BME280;36844;51.898;-0.874;2023-06-14T01:44:05;100625.03;;;22.41;
46015;BME280;36844;51.898;-0.874;2023-06-14T01:46:31;100622.31;;;22.41;
46015;BME280;36844;51.898;-0.874;2023-06-14T01:48:57;100634.97;;;22.48;
46015;BME280;36844;51.898;-0.874;2023-06-14T01:51:22;100643.78;;;22.52;
46015;BME280;36844;51.898;-0.874;2023-06-14T01:53:47;100624.25;;;22.41;
46015;BME280;36844;51.898;-0.874;2023-06-14T01:56:13;100598.28;;;22.24;
46015;BME280;36844;51.898;-0.874;2023-06-14T01:58:39;100622.63;;;22.43;
46015;BME280;36844;51.898;-0.874;2023-06-14T02:01:05;100609.25;;;22.36;
46015;BME280;36844;51.898;-0.874;2023-06-14T02:03:32;100630.69;;;22.47;
46015;BME280;36844;51.898;-0.874;2023-06-14T02:06:00;100618.50;;;22.39;
46015;BME280;36844;51.898;-0.874;2023-06-14T02:08:27;100608.56;;;22.32;
46015;BME280;36844;51.898;-0.874;2023-06-14T02:10:53;100616.19;;;22.37;
46015;BME280;36844;51.898;-0.874;2023-06-14T02:13:18;100607.03;;;22.31;
46015;BME280;36844;51.898;-0.874;2023-06-14T02:15:43;100615.81;;;22.39;
46015;BME280;36844;51.898;-0.874;2023-06-14T02:18:10;100584.81;;;22.20;
46015;BME280;36844;51.898;-0.874;2023-06-14T02:20:36;100590.84;;;22.28;
46015;BME280;36844;51.898;-0.874;2023-06-14T02:23:01;100609.25;;;22.36;
46015;BME280;36844;51.898;-0.874;2023-06-14T02:25:27;100596.19;;;22.31;
46015;BME280;36844;51.898;-0.874;2023-06-14T02:27:55;100611.13;;;22.39;
46015;BME280;36844;51.898;-0.874;2023-06-14T02:30:20;100598.16;;;22.31;
46015;BME280;36844;51.898;-0.874;2023-06-14T02:32:46;100593.91;;;22.30;
46015;BME280;36844;51.898;-0.874;2023-06-14T02:35:14;100582.16;;;22.17;
46015;BME280;36844;51.898;-0.874;2023-06-14T02:37:39;100581.84;;;22.15;
46015;BME280;36844;51.898;-0.874;2023-06-14T02:40:05;100603.22;;;22.29;
46015;BME280;36844;51.898;-0.874;2023-06-14T02:42:31;100604.00;;;22.29;
46015;BME280;36844;51.898;-0.874;2023-06-14T02:44:56;100602.75;;;22.34;
46015;BME280;36844;51.898;-0.874;2023-06-14T02:47:22;100598.66;;;22.26;
46015;BME280;36844;51.898;-0.874;2023-06-14T02:49:47;100602.81;;;22.30;
46015;BME280;36844;51.898;-0.874;2023-06-14T02:52:12;100589.91;;;22.18;
46015;BME280;36844;51.898;-0.874;2023-06-14T02:54:38;100597.13;;;22.25;
46015;BME280;36844;51.898;-0.874;2023-06-14T02:57:03;100584.81;;;22.20;
46015;BME280;36844;51.898;-0.874;2023-06-14T02:59:28;100592.03;;;22.27;
46015;BME280;36844;51.898;-0.874;2023-06-14T03:01:54;100601.00;;;22.24;
46015;BME280;36844;51.898;-0.874;2023-06-14T03:04:20;100601.44;;;22.22;
46015;BME280;36844;51.898;-0.874;2023-06-14T03:06:45;100595.66;;;22.20;
46015;BME280;36844;51.898;-0.874;2023-06-14T03:09:15;100606.78;;;22.26;
46015;BME280;36844;51.898;-0.874;2023-06-14T03:11:41;100602.28;;;22.19;
46015;BME280;36844;51.898;-0.874;2023-06-14T03:14:06;100598.81;;;22.19;
46015;BME280;36844;51.898;-0.874;2023-06-14T03:16:33;100592.25;;;22.16;
46015;BME280;36844;51.898;-0.874;2023-06-14T03:18:58;100586.16;;;22.12;
46015;BME280;36844;51.898;-0.874;2023-06-14T03:21:24;100597.97;;;22.22;
46015;BME280;36844;51.898;-0.874;2023-06-14T03:23:51;100596.13;;;22.19;
46015;BME280;36844;51.898;-0.874;2023-06-14T03:26:18;100596.44;;;22.21;
46015;BME280;36844;51.898;-0.874;2023-06-14T03:28:47;100593.56;;;22.12;
46015;BME280;36844;51.898;-0.874;2023-06-14T03:31:13;100598.44;;;22.17;
46015;BME280;36844;51.898;-0.874;2023-06-14T03:33:39;100599.69;;;22.16;
46015;BME280;36844;51.898;-0.874;2023-06-14T03:36:05;100592.00;;;22.11;
46015;BME280;36844;51.898;-0.874;2023-06-14T03:38:32;100598.91;;;22.15;
46015;BME280;36844;51.898;-0.874;2023-06-14T03:40:57;100590.06;;;22.11;
46015;BME280;36844;51.898;-0.874;2023-06-14T03:43:22;100586.25;;;22.08;
46015;BME280;36844;51.898;-0.874;2023-06-14T03:45:48;100577.94;;;21.99;
46015;BME280;36844;51.898;-0.874;2023-06-14T03:48:13;100592.16;;;22.03;
46015;BME280;36844;51.898;-0.874;2023-06-14T03:50:38;100591.75;;;22.05;
46015;BME280;36844;51.898;-0.874;2023-06-14T03:53:04;100600.31;;;22.03;
46015;BME280;36844;51.898;-0.874;2023-06-14T03:55:30;100603.78;;;22.04;
46015;BME280;36844;51.898;-0.874;2023-06-14T03:57:56;100613.78;;;22.07;
46015;BME280;36844;51.898;-0.874;2023-06-14T04:00:22;100606.16;;;22.02;
46015;BME280;36844;51.898;-0.874;2023-06-14T04:02:47;100602.69;;;22.01;
46015;BME280;36844;51.898;-0.874;2023-06-14T04:05:13;100604.53;;;22.04;
46015;BME280;36844;51.898;-0.874;2023-06-14T04:07:42;100612.75;;;22.01;
46015;BME280;36844;51.898;-0.874;2023-06-14T04:10:13;100615.72;;;22.06;
46015;BME280;36844;51.898;-0.874;2023-06-14T04:12:39;100621.59;;;22.05;
46015;BME280;36844;51.898;-0.874;2023-06-14T04:15:05;100605.47;;;21.98;
46015;BME280;36844;51.898;-0.874;2023-06-14T04:17:32;100614.38;;;21.98;
46015;BME280;36844;51.898;-0.874;2023-06-14T04:20:01;100621.28;;;22.03;
46015;BME280;36844;51.898;-0.874;2023-06-14T04:22:29;100605.53;;;21.94;
46015;BME280;36844;51.898;-0.874;2023-06-14T04:24:55;100612.16;;;21.93;
46015;BME280;36844;51.898;-0.874;2023-06-14T04:27:22;100604.88;;;21.90;
46015;BME280;36844;51.898;-0.874;2023-06-14T04:29:54;100619.09;;;21.94;
46015;BME280;36844;51.898;-0.874;2023-06-14T04:32:30;100621.41;;;21.96;
46015;BME280;36844;51.898;-0.874;2023-06-14T04:34:59;100624.44;;;21.98;
46015;BME280;36844;51.898;-0.874;2023-06-14T04:37:27;100602.69;;;21.82;
46015;BME280;36844;51.898;-0.874;2023-06-14T04:39:55;100606.19;;;21.82;
46015;BME280;36844;51.898;-0.874;2023-06-14T04:42:21;100608.81;;;21.86;
46015;BME280;36844;51.898;-0.874;2023-06-14T04:44:51;100623.75;;;21.94;
46015;BME280;36844;51.898;-0.874;2023-06-14T04:47:16;100621.81;;;21.94;
46015;BME280;36844;51.898;-0.874;2023-06-14T04:49:42;100612.38;;;21.83;
46015;BME280;36844;51.898;-0.874;2023-06-14T04:52:07;100629.63;;;21.92;
46015;BME280;36844;51.898;-0.874;2023-06-14T04:54:36;100618.97;;;21.82;
46015;BME280;36844;51.898;-0.874;2023-06-14T04:57:03;100606.25;;;21.79;
46015;BME280;36844;51.898;-0.874;2023-06-14T04:59:29;100628.94;;;21.88;
46015;BME280;36844;51.898;-0.874;2023-06-14T05:01:58;100634.72;;;21.90;
46015;BME280;36844;51.898;-0.874;2023-06-14T05:04:25;100621.28;;;21.83;
46015;BME280;36844;51.898;-0.874;2023-06-14T05:06:52;100629.69;;;21.89;
46015;BME280;36844;51.898;-0.874;2023-06-14T05:09:19;100624.31;;;21.85;
46015;BME280;36844;51.898;-0.874;2023-06-14T05:11:45;100623.59;;;21.85;
46015;BME280;36844;51.898;-0.874;2023-06-14T05:14:11;100615.88;;;21.83;
46015;BME280;36844;51.898;-0.874;2023-06-14T05:16:36;100594.88;;;21.68;
46015;BME280;36844;51.898;-0.874;2023-06-14T05:19:02;100634.84;;;21.83;
46015;BME280;36844;51.898;-0.874;2023-06-14T05:21:29;100624.00;;;21.83;
46015;BME280;36844;51.898;-0.874;2023-06-14T05:23:55;100632.91;;;21.84;
46015;BME280;36844;51.898;-0.874;2023-06-14T05:26:21;100618.72;;;21.76;
46015;BME280;36844;51.898;-0.874;2023-06-14T05:28:48;100614.63;;;21.68;
46015;BME280;36844;51.898;-0.874;2023-06-14T05:31:14;100637.13;;;21.85;
46015;BME280;36844;51.898;-0.874;2023-06-14T05:33:40;100630.59;;;21.82;
46015;BME280;36844;51.898;-0.874;2023-06-14T05:36:05;100647.91;;;21.88;
46015;BME280;36844;51.898;-0.874;2023-06-14T05:38:31;100637.41;;;21.90;
46015;BME280;36844;51.898;-0.874;2023-06-14T05:40:56;100632.91;;;21.84;
46015;BME280;36844;51.898;-0.874;2023-06-14T05:43:21;100635.88;;;21.89;
46015;BME280;36844;51.898;-0.874;2023-06-14T05:45:46;100627.41;;;21.87;
46015;BME280;36844;51.898;-0.874;2023-06-14T05:48:12;100625.09;;;21.86;
46015;BME280;36844;51.898;-0.874;2023-06-14T05:50:37;100613.22;;;21.80;
46015;BME280;36844;51.898;-0.874;2023-06-14T05:53:02;100637.75;;;21.92;
46015;BME280;36844;51.898;-0.874;2023-06-14T05:55:28;100615.50;;;21.81;
46015;BME280;36844;51.898;-0.874;2023-06-14T05:57:53;100609.66;;;21.83;
46015;BME280;36844;51.898;-0.874;2023-06-14T06:00:18;100629.63;;;21.92;
46015;BME280;36844;51.898;-0.874;2023-06-14T06:02:45;100631.16;;;21.93;
46015;BME280;36844;51.898;-0.874;2023-06-14T06:05:12;100637.25;;;21.97;
46015;BME280;36844;51.898;-0.874;2023-06-14T06:07:38;100628.31;;;21.97;
46015;BME280;36844;51.898;-0.874;2023-06-14T06:10:05;100639.09;;;22.00;
46015;BME280;36844;51.898;-0.874;2023-06-14T06:12:31;100636.41;;;22.00;
46015;BME280;36844;51.898;-0.874;2023-06-14T06:14:57;100624.53;;;21.94;
46015;BME280;36844;51.898;-0.874;2023-06-14T06:17:23;100619.53;;;21.93;
46015;BME280;36844;51.898;-0.874;2023-06-14T06:19:48;100644.13;;;22.02;
46015;BME280;36844;51.898;-0.874;2023-06-14T06:22:13;100638.00;;;21.98;
46015;BME280;36844;51.898;-0.874;2023-06-14T06:24:39;100635.69;;;22.00;
46015;BME280;36844;51.898;-0.874;2023-06-14T06:27:04;100646.78;;;22.05;
46015;BME280;36844;51.898;-0.874;2023-06-14T06:29:30;100634.06;;;22.02;
46015;BME280;36844;51.898;-0.874;2023-06-14T06:31:55;100630.97;;;22.00;
46015;BME280;36844;51.898;-0.874;2023-06-14T06:34:21;100626.38;;;21.97;
46015;BME280;36844;51.898;-0.874;2023-06-14T06:36:47;100648.28;;;22.06;
46015;BME280;36844;51.898;-0.874;2023-06-14T06:39:12;100630.38;;;21.93;
46015;BME280;36844;51.898;-0.874;2023-06-14T06:41:40;100632.00;;;21.90;
46015;BME280;36844;51.898;-0.874;2023-06-14T06:44:06;100647.84;;;21.92;
46015;BME280;36844;51.898;-0.874;2023-06-14T06:46:32;100618.50;;;21.67;
46015;BME280;36844;51.898;-0.874;2023-06-14T06:48:58;100638.47;;;21.77;
46015;BME280;36844;51.898;-0.874;2023-06-14T06:51:23;100638.97;;;21.72;
46015;BME280;36844;51.898;-0.874;2023-06-14T06:53:55;100638.19;;;21.71;
46015;BME280;36844;51.898;-0.874;2023-06-14T06:56:21;100643.25;;;21.69;
46015;BME280;36844;51.898;-0.874;2023-06-14T06:58:49;100635.88;;;21.70;
46015;BME280;36844;51.898;-0.874;2023-06-14T07:01:14;100644.66;;;21.77;
46015;BME280;36844;51.898;-0.874;2023-06-14T07:03:41;100636.25;;;21.72;
46015;BME280;36844;51.898;-0.874;2023-06-14T07:06:06;100636.66;;;21.70;
46015;BME280;36844;51.898;-0.874;2023-06-14T07:08:31;100640.06;;;21.74;
46015;BME280;36844;51.898;-0.874;2023-06-14T07:10:57;100634.78;;;21.67;
46015;BME280;36844;51.898;-0.874;2023-06-14T07:13:22;100654.75;;;21.77;
46015;BME280;36844;51.898;-0.874;2023-06-14T07:15:47;100657.84;;;21.75;
46015;BME280;36844;51.898;-0.874;2023-06-14T07:18:13;100642.84;;;21.71;
46015;BME280;36844;51.898;-0.874;2023-06-14T07:20:38;100661.63;;;21.81;
46015;BME280;36844;51.898;-0.874;2023-06-14T07:23:04;100671.97;;;21.86;
46015;BME280;36844;51.898;-0.874;2023-06-14T07:25:29;100663.13;;;21.82;
46015;BME280;36844;51.898;-0.874;2023-06-14T07:27:55;100669.69;;;21.85;
46015;BME280;36844;51.898;-0.874;2023-06-14T07:30:20;100671.66;;;21.84;
46015;BME280;36844;51.898;-0.874;2023-06-14T07:32:46;100668.41;;;21.89;
46015;BME280;36844;51.898;-0.874;2023-06-14T07:35:11;100662.28;;;21.85;
46015;BME280;36844;51.898;-0.874;2023-06-14T07:37:36;100658.84;;;21.85;
46015;BME280;36844;51.898;-0.874;2023-06-14T07:40:02;100672.69;;;21.90;
46015;BME280;36844;51.898;-0.874;2023-06-14T07:42:34;100664.59;;;21.87;
46015;BME280;36844;51.898;-0.874;2023-06-14T07:45:00;100665.00;;;21.85;
46015;BME280;36844;51.898;-0.874;2023-06-14T07:47:26;100674.69;;;21.86;
46015;BME280;36844;51.898;-0.874;2023-06-14T07:49:51;100666.13;;;21.88;
46015;BME280;36844;51.898;-0.874;2023-06-14T07:52:16;100675.03;;;21.88;
46015;BME280;36844;51.898;-0.874;2023-06-14T07:54:42;100679.16;;;21.96;
46015;BME280;36844;51.898;-0.874;2023-06-14T07:57:08;100659.25;;;21.83;
46015;BME280;36844;51.898;-0.874;2023-06-14T07:59:33;100664.97;;;21.89;
46015;BME280;36844;51.898;-0.874;2023-06-14T08:01:59;100662.66;;;21.87;
46015;BME280;36844;51.898;-0.874;2023-06-14T08:04:24;100662.91;;;21.93;
46015;BME280;36844;51.898;-0.874;2023-06-14T08:06:50;100682.50;;;22.00;
46015;BME280;36844;51.898;-0.874;2023-06-14T08:09:15;100648.34;;;21.87;
46015;BME280;36844;51.898;-0.874;2023-06-14T08:11:41;100675.59;;;21.99;
46015;BME280;36844;51.898;-0.874;2023-06-14T08:14:06;100686.69;;;22.05;
46015;BME280;36844;51.898;-0.874;2023-06-14T08:16:32;100681.69;;;22.03;
46015;BME280;36844;51.898;-0.874;2023-06-14T08:18:57;100666.22;;;22.00;
46015;BME280;36844;51.898;-0.874;2023-06-14T08:21:22;100690.84;;;22.09;
46015;BME280;36844;51.898;-0.874;2023-06-14T08:23:48;100687.41;;;22.09;
46015;BME280;36844;51.898;-0.874;2023-06-14T08:26:14;100688.06;;;22.13;
46015;BME280;36844;51.898;-0.874;2023-06-14T08:28:39;100691.94;;;22.16;
46015;BME280;36844;51.898;-0.874;2023-06-14T08:31:05;100686.06;;;22.17;
46015;BME280;36844;51.898;-0.874;2023-06-14T08:33:30;100677.22;;;22.13;
46015;BME280;36844;51.898;-0.874;2023-06-14T08:35:58;100654.56;;;22.03;
46015;BME280;36844;51.898;-0.874;2023-06-14T08:38:23;100685.66;;;22.19;
46015;BME280;36844;51.898;-0.874;2023-06-14T08:40:50;100694.81;;;22.25;
46015;BME280;36844;51.898;-0.874;2023-06-14T08:43:17;100674.81;;;22.19;
46015;BME280;36844;51.898;-0.874;2023-06-14T08:45:42;100672.84;;;22.19;
46015;BME280;36844;51.898;-0.874;2023-06-14T08:48:08;100687.81;;;22.27;
46015;BME280;36844;51.898;-0.874;2023-06-14T08:50:35;100679.72;;;22.24;
46015;BME280;36844;51.898;-0.874;2023-06-14T08:53:02;100686.97;;;22.30;
46015;BME280;36844;51.898;-0.874;2023-06-14T08:55:28;100678.88;;;22.27;
46015;BME280;36844;51.898;-0.874;2023-06-14T08:57:55;100673.13;;;22.25;
46015;BME280;36844;51.898;-0.874;2023-06-14T09:00:23;100683.72;;;22.35;
46015;BME280;36844;51.898;-0.874;2023-06-14T09:02:49;100676.94;;;22.27;
46015;BME280;36844;51.898;-0.874;2023-06-14T09:05:15;100674.47;;;22.33;
46015;BME280;36844;51.898;-0.874;2023-06-14T09:07:43;100684.41;;;22.39;
46015;BME280;36844;51.898;-0.874;2023-06-14T09:10:14;100686.69;;;22.41;
46015;BME280;36844;51.898;-0.874;2023-06-14T09:12:40;100676.34;;;22.36;
46015;BME280;36844;51.898;-0.874;2023-06-14T09:15:06;100689.78;;;22.43;
46015;BME280;36844;51.898;-0.874;2023-06-14T09:17:36;100685.53;;;22.42;
46015;BME280;36844;51.898;-0.874;2023-06-14T09:20:03;100690.50;;;22.43;
46015;BME280;36844;51.898;-0.874;2023-06-14T09:22:34;100701.66;;;22.49;
46015;BME280;36844;51.898;-0.874;2023-06-14T09:25:00;100680.88;;;22.42;
46015;BME280;36844;51.898;-0.874;2023-06-14T09:27:26;100686.53;;;22.48;
46015;BME280;36844;51.898;-0.874;2023-06-14T09:29:54;100692.66;;;22.52;
46015;BME280;36844;51.898;-0.874;2023-06-14T09:32:21;100689.25;;;22.48;
46015;BME280;36844;51.898;-0.874;2023-06-14T09:34:47;100685.00;;;22.47;
46015;BME280;36844;51.898;-0.874;2023-06-14T09:37:12;100691.81;;;22.55;
46015;BME280;36844;51.898;-0.874;2023-06-14T09:39:50;100706.50;;;22.57;
46015;BME280;36844;51.898;-0.874;2023-06-14T09:42:16;100705.31;;;22.58;
46015;BME280;36844;51.898;-0.874;2023-06-14T09:44:48;100702.16;;;22.60;
46015;BME280;36844;51.898;-0.874;2023-06-14T09:47:18;100691.03;;;22.54;
46015;BME280;36844;51.898;-0.874;2023-06-14T09:49:43;100696.44;;;22.58;
46015;BME280;36844;51.898;-0.874;2023-06-14T09:52:19;100711.00;;;22.64;
46015;BME280;36844;51.898;-0.874;2023-06-14T09:54:46;100700.16;;;22.64;
46015;BME280;36844;51.898;-0.874;2023-06-14T09:57:13;100703.97;;;22.66;
46015;BME280;36844;51.898;-0.874;2023-06-14T09:59:41;100696.34;;;22.61;
46015;BME280;36844;51.898;-0.874;2023-06-14T10:02:11;100704.72;;;22.67;
46015;BME280;36844;51.898;-0.874;2023-06-14T10:04:41;100712.03;;;22.70;
46015;BME280;36844;51.898;-0.874;2023-06-14T10:07:20;100693.94;;;22.63;
46015;BME280;36844;51.898;-0.874;2023-06-14T10:09:47;100701.50;;;22.72;
46015;BME280;36844;51.898;-0.874;2023-06-14T10:12:17;100697.25;;;22.71;
46015;BME280;36844;51.898;-0.874;2023-06-14T10:14:51;100704.53;;;22.74;
46015;BME280;36844;51.898;-0.874;2023-06-14T10:17:33;100706.16;;;22.71;
46015;BME280;36844;51.898;-0.874;2023-06-14T10:22:49;100687.59;;;22.70;
46015;BME280;36844;51.898;-0.874;2023-06-14T10:25:31;100697.25;;;22.71;
46015;BME280;36844;51.898;-0.874;2023-06-14T10:28:16;100703.38;;;22.75;
46015;BME280;36844;51.898;-0.874;2023-06-14T10:31:07;100701.44;;;22.75;
46015;BME280;36844;51.898;-0.874;2023-06-14T10:34:20;100701.00;;;22.77;
46015;BME280;36844;51.898;-0.874;2023-06-14T10:36:27;100699.03;;;22.77;
46015;BME280;36844;51.898;-0.874;2023-06-14T10:39:01;100706.78;;;22.79;
46015;BME280;36844;51.898;-0.874;2023-06-14T10:41:29;100690.63;;;22.72;
46015;BME280;36844;51.898;-0.874;2023-06-14T10:44:23;100698.28;;;22.77;
46015;BME280;36844;51.898;-0.874;2023-06-14T10:46:58;100695.22;;;22.75;
46015;BME280;36844;51.898;-0.874;2023-06-14T10:49:40;100689.78;;;22.75;
46015;BME280;36844;51.898;-0.874;2023-06-14T10:52:08;100703.56;;;22.84;
46015;BME280;36844;51.898;-0.874;2023-06-14T10:54:55;100689.72;;;22.78;
46015;BME280;36844;51.898;-0.874;2023-06-14T10:57:20;100688.53;;;22.79;
46015;BME280;36844;51.898;-0.874;2023-06-14T10:59:46;100688.41;;;22.83;
46015;BME280;36844;51.898;-0.874;2023-06-14T11:02:45;100687.94;;;22.88;
46015;BME280;36844;51.898;-0.874;2023-06-14T11:05:14;100688.34;;;22.86;
46015;BME280;36844;51.898;-0.874;2023-06-14T11:07:58;100700.22;;;22.92;
46015;BME280;36844;51.898;-0.874;2023-06-14T11:10:43;100699.81;;;22.94;
46015;BME280;36844;51.898;-0.874;2023-06-14T11:13:10;100682.50;;;22.88;
46015;BME280;36844;51.898;-0.874;2023-06-14T11:15:37;100692.78;;;22.96;
46015;BME280;36844;51.898;-0.874;2023-06-14T11:18:04;100692.31;;;22.98;
46015;BME280;36844;51.898;-0.874;2023-06-14T11:20:31;100681.13;;;22.96;
46015;BME280;36844;51.898;-0.874;2023-06-14T11:22:57;100686.03;;;23.01;
46015;BME280;36844;51.898;-0.874;2023-06-14T11:25:24;100673.06;;;22.92;
46015;BME280;36844;51.898;-0.874;2023-06-14T11:27:50;100680.59;;;23.01;
46015;BME280;36844;51.898;-0.874;2023-06-14T11:30:15;100673.22;;;23.01;
46015;BME280;36844;51.898;-0.874;2023-06-14T11:32:41;100681.72;;;23.03;
46015;BME280;36844;51.898;-0.874;2023-06-14T11:35:08;100682.81;;;23.06;
46015;BME280;36844;51.898;-0.874;2023-06-14T11:37:35;100667.78;;;23.01;
46015;BME280;36844;51.898;-0.874;2023-06-14T11:40:02;100678.13;;;23.06;
46015;BME280;36844;51.898;-0.874;2023-06-14T11:42:34;100678.03;;;23.10;
46015;BME280;36844;51.898;-0.874;2023-06-14T11:45:00;100682.31;;;23.11;
46015;BME280;36844;51.898;-0.874;2023-06-14T11:47:31;100666.81;;;23.08;
46015;BME280;36844;51.898;-0.874;2023-06-14T11:49:58;100667.25;;;23.06;
46015;BME280;36844;51.898;-0.874;2023-06-14T11:52:24;100660.41;;;23.02;
46015;BME280;36844;51.898;-0.874;2023-06-14T11:54:49;100665.66;;;23.09;
46015;BME280;36844;51.898;-0.874;2023-06-14T11:57:15;100668.63;;;23.14;
46015;BME280;36844;51.898;-0.874;2023-06-14T11:59:43;100660.22;;;23.09;
46015;BME280;36844;51.898;-0.874;2023-06-14T12:02:09;100669.41;;;23.15;
46015;BME280;36844;51.898;-0.874;2023-06-14T12:04:35;100675.16;;;23.17;
46015;BME280;36844;51.898;-0.874;2023-06-14T12:07:14;100667.94;;;23.10;
46015;BME280;36844;51.898;-0.874;2023-06-14T12:12:22;100666.22;;;23.16;
46015;BME280;36844;51.898;-0.874;2023-06-14T12:14:49;100664.78;;;23.12;
46015;BME280;36844;51.898;-0.874;2023-06-14T12:17:16;100664.28;;;23.17;
46015;BME280;36844;51.898;-0.874;2023-06-14T12:19:43;100665.44;;;23.16;
46015;BME280;36844;51.898;-0.874;2023-06-14T12:22:13;100673.09;;;23.21;
46015;BME280;36844;51.898;-0.874;2023-06-14T12:24:39;100653.09;;;23.15;
46015;BME280;36844;51.898;-0.874;2023-06-14T12:27:07;100647.75;;;23.11;
46015;BME280;36844;51.898;-0.874;2023-06-14T12:29:33;100654.94;;;23.18;
46015;BME280;36844;51.898;-0.874;2023-06-14T12:31:58;100654.56;;;23.16;
46015;BME280;36844;51.898;-0.874;2023-06-14T12:34:24;100668.31;;;23.25;
46015;BME280;36844;51.898;-0.874;2023-06-14T12:36:50;100655.16;;;23.23;
46015;BME280;36844;51.898;-0.874;2023-06-14T12:39:16;100661.81;;;23.22;
46015;BME280;36844;51.898;-0.874;2023-06-14T12:41:41;100666.69;;;23.27;
46015;BME280;36844;51.898;-0.874;2023-06-14T12:44:07;100660.53;;;23.27;
46015;BME280;36844;51.898;-0.874;2023-06-14T12:46:33;100655.81;;;23.27;
46015;BME280;36844;51.898;-0.874;2023-06-14T12:48:58;100666.59;;;23.31;
46015;BME280;36844;51.898;-0.874;2023-06-14T12:51:23;100662.69;;;23.32;
46015;BME280;36844;51.898;-0.874;2023-06-14T12:53:50;100660.31;;;23.34;
46015;BME280;36844;51.898;-0.874;2023-06-14T12:56:16;100653.00;;;23.31;
46015;BME280;36844;51.898;-0.874;2023-06-14T12:58:42;100653.47;;;23.29;
46015;BME280;36844;51.898;-0.874;2023-06-14T13:01:07;100661.84;;;23.35;
46015;BME280;36844;51.898;-0.874;2023-06-14T13:03:32;100644.09;;;23.30;
46015;BME280;36844;51.898;-0.874;2023-06-14T13:06:01;100660.31;;;23.34;
46015;BME280;36844;51.898;-0.874;2023-06-14T13:08:28;100659.91;;;23.36;
46015;BME280;36844;51.898;-0.874;2023-06-14T13:10:53;100662.00;;;23.44;
46015;BME280;36844;51.898;-0.874;2023-06-14T13:13:19;100651.97;;;23.41;
46015;BME280;36844;51.898;-0.874;2023-06-14T13:15:44;100654.91;;;23.47;
46015;BME280;36844;51.898;-0.874;2023-06-14T13:18:11;100648.94;;;23.52;
46015;BME280;36844;51.898;-0.874;2023-06-14T13:20:38;100641.41;;;23.43;
46015;BME280;36844;51.898;-0.874;2023-06-14T13:23:04;100643.59;;;23.48;
46015;BME280;36844;51.898;-0.874;2023-06-14T13:25:31;100636.66;;;23.47;
46015;BME280;36844;51.898;-0.874;2023-06-14T13:27:56;100637.75;;;23.50;
46015;BME280;36844;51.898;-0.874;2023-06-14T13:30:21;100646.81;;;23.59;
46015;BME280;36844;51.898;-0.874;2023-06-14T13:32:47;100638.75;;;23.56;
46015;BME280;36844;51.898;-0.874;2023-06-14T13:35:16;100646.69;;;23.63;
46015;BME280;36844;51.898;-0.874;2023-06-14T13:37:41;100641.59;;;23.65;
46015;BME280;36844;51.898;-0.874;2023-06-14T13:40:07;100648.47;;;23.69;